Time;durP1;ratioP1;P1;durP2;ratioP2;P2;SDS_P1;SDS_P2;PMS_P1;PMS_P2;Temp;Humidity;BMP_temperature;BMP_pressure;BME280_temperature;BME280_humidity;BME280_pressure;Samples;Min_cycle;Max_cycle;Signal;HPM_P1;HPM_P2
2023/01/19 00:01:00;;;;;;;31.63;10.82;;;2.50;99.90;;;;;;5056161;28;20128;-81
2023/01/19 00:03:26;;;;;;;39.80;16.17;;;2.50;99.90;;;;;;5055000;28;20088;-81
2023/01/19 00:05:51;;;;;;;43.20;14.98;;;2.60;99.90;;;;;;5038724;28;20106;-81
2023/01/19 00:08:17;;;;;;;31.52;11.30;;;2.50;99.90;;;;;;5056381;28;20052;-81
2023/01/19 00:10:46;;;;;;;31.30;10.95;;;2.50;99.90;;;;;;5055003;28;20056;-80
2023/01/19 00:13:13;;;;;;;24.13;9.20;;;2.50;99.90;;;;;;5089194;28;20081;-80
2023/01/19 00:15:39;;;;;;;25.73;8.30;;;2.50;99.90;;;;;;5038529;28;20426;-80
2023/01/19 00:18:05;;;;;;;20.98;7.97;;;2.50;99.90;;;;;;5038281;28;20087;-79
2023/01/19 00:20:31;;;;;;;20.70;8.32;;;2.50;99.90;;;;;;5055410;28;20033;-80
2023/01/19 00:22:57;;;;;;;20.17;6.70;;;2.50;99.90;;;;;;5054687;28;20053;-78
2023/01/19 00:25:23;;;;;;;17.77;6.65;;;2.40;99.90;;;;;;5055868;28;20053;-80
2023/01/19 00:27:49;;;;;;;14.68;4.93;;;2.40;99.90;;;;;;5055940;28;20397;-80
2023/01/19 00:30:15;;;;;;;13.52;5.07;;;2.40;99.90;;;;;;5055739;28;20041;-80
2023/01/19 00:32:41;;;;;;;12.10;4.00;;;2.30;99.90;;;;;;5054695;28;20425;-79
2023/01/19 00:35:07;;;;;;;14.85;4.95;;;2.30;99.90;;;;;;5055606;28;20052;-82
2023/01/19 00:37:33;;;;;;;16.00;6.00;;;2.30;99.90;;;;;;5088329;28;20062;-80
2023/01/19 00:39:58;;;;;;;18.83;6.97;;;2.20;99.90;;;;;;5054482;28;20041;-80
2023/01/19 00:42:39;;;;;;;19.13;7.35;;;2.20;99.90;;;;;;5055428;28;20053;-79
2023/01/19 00:45:07;;;;;;;23.15;7.13;;;2.10;99.90;;;;;;5055531;28;20048;-79
2023/01/19 00:47:33;;;;;;;20.85;8.18;;;2.10;99.90;;;;;;5055491;28;20052;-80
2023/01/19 00:49:59;;;;;;;25.95;9.23;;;2.10;99.90;;;;;;5021254;28;20051;-78
2023/01/19 00:52:24;;;;;;;22.30;7.85;;;2.00;99.90;;;;;;5054263;28;20055;-81
2023/01/19 00:54:50;;;;;;;34.78;15.48;;;2.00;99.90;;;;;;5055284;28;20107;-81
2023/01/19 00:57:18;;;;;;;29.60;11.95;;;2.00;99.90;;;;;;5055406;28;20397;-79
2023/01/19 00:59:44;;;;;;;;;;;2.00;99.90;;;;;;5054713;28;20048;-79
2023/01/19 01:02:10;;;;;;;27.57;10.50;;;1.90;99.90;;;;;;5055213;28;20368;-77
2023/01/19 01:04:36;;;;;;;29.45;11.98;;;1.90;99.90;;;;;;5055728;28;20052;-78
2023/01/19 01:07:03;;;;;;;36.97;14.67;;;1.90;99.90;;;;;;5055211;28;20052;-80
2023/01/19 01:09:29;;;;;;;42.90;17.40;;;1.90;99.90;;;;;;5054322;28;20092;-81
2023/01/19 01:11:55;;;;;;;44.97;17.40;;;1.70;99.90;;;;;;5054242;28;20052;-80
2023/01/19 01:14:22;;;;;;;49.15;21.00;;;1.80;99.90;;;;;;5053891;28;20337;-78
2023/01/19 01:16:49;;;;;;;36.72;14.93;;;1.80;99.90;;;;;;5053430;28;20052;-80
2023/01/19 01:19:15;;;;;;;41.70;15.17;;;1.80;99.90;;;;;;5055019;28;20045;-80
2023/01/19 01:21:41;;;;;;;37.03;13.77;;;1.80;99.90;;;;;;5087904;28;20368;-79
2023/01/19 01:24:08;;;;;;;43.00;15.77;;;1.80;99.90;;;;;;5055096;28;20124;-82
2023/01/19 01:26:33;;;;;;;39.83;15.10;;;1.80;99.90;;;;;;5056684;28;20481;-80
2023/01/19 01:28:59;;;;;;;40.30;14.35;;;1.90;99.90;;;;;;5055888;28;20045;-81
2023/01/19 01:31:25;;;;;;;48.72;17.85;;;1.90;99.90;;;;;;5054998;28;20045;-81
2023/01/19 01:33:51;;;;;;;53.75;19.90;;;1.90;99.90;;;;;;5038479;28;20040;-81
2023/01/19 01:36:17;;;;;;;51.88;19.40;;;1.90;99.90;;;;;;5055131;28;20107;-79
2023/01/19 01:38:44;;;;;;;44.47;17.20;;;1.90;99.90;;;;;;5087239;28;20389;-80
2023/01/19 01:41:09;;;;;;;51.63;19.48;;;1.90;99.90;;;;;;5036380;28;20052;-81
2023/01/19 01:43:57;;;;;;;50.15;18.65;;;1.90;99.90;;;;;;5053073;28;20049;-78
2023/01/19 01:46:24;;;;;;;56.63;20.40;;;1.90;99.90;;;;;;5055121;28;20045;-80
2023/01/19 01:49:06;;;;;;;60.42;22.67;;;1.90;99.90;;;;;;5087572;28;20439;-83
2023/01/19 01:51:45;;;;;;;52.75;19.30;;;2.00;99.90;;;;;;5037295;28;20481;-81
2023/01/19 01:54:18;;;;;;;64.78;24.52;;;1.90;99.90;;;;;;5053496;28;20140;-82
2023/01/19 01:56:50;;;;;;;63.17;22.80;;;1.90;99.90;;;;;;5053184;28;20045;-82
2023/01/19 01:59:25;;;;;;;63.25;23.42;;;1.90;99.90;;;;;;5054631;28;20106;-80
2023/01/19 02:04:45;;;;;;;57.95;20.85;;;2.00;99.90;;;;;;5055102;28;20049;-81
2023/01/19 02:15:30;;;;;;;65.75;25.08;;;2.00;99.90;;;;;;5053980;28;20140;-81
2023/01/19 02:17:57;;;;;;;60.25;21.63;;;2.00;99.90;;;;;;5053208;28;20080;-79
2023/01/19 02:20:28;;;;;;;64.95;22.38;;;2.00;99.90;;;;;;5053072;28;20067;-78
2023/01/19 02:22:55;;;;;;;62.05;20.95;;;2.00;99.90;;;;;;5054836;28;20060;-80
2023/01/19 02:25:21;;;;;;;73.95;27.70;;;2.00;99.90;;;;;;5054716;28;20060;-81
2023/01/19 02:27:50;;;;;;;61.90;20.75;;;2.00;99.90;;;;;;5086514;28;20053;-82
2023/01/19 02:30:17;;;;;;;55.22;19.45;;;2.10;99.90;;;;;;5054266;28;20060;-80
2023/01/19 02:32:43;;;;;;;53.28;18.27;;;2.10;99.90;;;;;;5054422;28;20041;-79
2023/01/19 02:35:10;;;;;;;53.08;18.85;;;2.10;99.90;;;;;;5088730;28;20041;-80
2023/01/19 02:37:39;;;;;;;55.67;18.83;;;2.10;99.90;;;;;;5053800;28;20037;-82
2023/01/19 02:40:09;;;;;;;52.28;19.02;;;2.20;99.90;;;;;;5037124;28;20118;-82
2023/01/19 02:42:51;;;;;;;47.22;16.27;;;2.20;99.90;;;;;;5086859;28;20559;-81
2023/01/19 02:45:21;;;;;;;69.22;25.13;;;2.20;99.90;;;;;;5053067;28;20502;-81
2023/01/19 02:47:49;;;;;;;61.55;20.20;;;2.20;99.90;;;;;;5054500;28;20070;-82
2023/01/19 02:51:13;;;;;;;69.20;24.27;;;2.20;99.90;;;;;;5055044;28;20081;-82
2023/01/19 02:53:56;;;;;;;68.68;23.85;;;2.20;99.90;;;;;;5031918;28;20045;-82
2023/01/19 02:56:41;;;;;;;64.13;21.83;;;2.10;99.90;;;;;;5059747;28;20135;-82
2023/01/19 02:59:15;;;;;;;67.15;23.23;;;2.10;99.90;;;;;;5091824;28;20049;-81
2023/01/19 03:01:49;;;;;;;72.15;22.50;;;2.10;99.90;;;;;;5059498;28;20045;-81
2023/01/19 03:04:53;;;;;;;68.43;22.98;;;2.10;99.90;;;;;;5060538;28;20049;-83
2023/01/19 03:07:51;;;;;;;59.38;20.65;;;2.10;99.90;;;;;;5042403;28;20136;-81
2023/01/19 03:10:30;;;;;;;73.85;25.17;;;2.10;99.90;;;;;;5083425;28;20473;-79
2023/01/19 03:13:06;;;;;;;75.63;23.50;;;2.10;99.90;;;;;;5072894;28;20049;-82
2023/01/19 03:16:10;;;;;;;67.40;22.88;;;2.10;99.90;;;;;;5069015;28;20045;-79
2023/01/19 03:18:41;;;;;;;72.25;23.60;;;2.00;99.90;;;;;;5010499;28;20070;-83
2023/01/19 03:21:10;;;;;;;69.40;23.13;;;2.00;99.90;;;;;;5057641;28;20623;-80
2023/01/19 03:23:40;;;;;;;61.78;20.83;;;2.00;99.90;;;;;;5061051;28;20075;-79
2023/01/19 03:26:10;;;;;;;56.92;20.50;;;2.00;99.90;;;;;;5058378;28;20049;-82
2023/01/19 03:28:39;;;;;;;52.92;18.38;;;2.00;99.90;;;;;;5041909;28;20057;-81
2023/01/19 03:31:12;;;;;;;56.63;19.35;;;2.00;99.90;;;;;;5060459;28;20124;-79
2023/01/19 03:33:41;;;;;;;63.55;23.15;;;2.00;99.90;;;;;;5063354;28;20041;-79
2023/01/19 03:36:15;;;;;;;54.28;18.85;;;2.00;99.90;;;;;;5068083;28;20103;-80
2023/01/19 03:38:43;;;;;;;59.17;20.25;;;2.00;99.90;;;;;;5102179;28;20071;-81
2023/01/19 03:41:15;;;;;;;55.97;18.92;;;2.00;99.90;;;;;;5068210;28;20092;-82
2023/01/19 03:43:42;;;;;;;54.13;18.42;;;2.00;99.90;;;;;;5065217;28;20041;-83
2023/01/19 03:46:09;;;;;;;;;;;2.00;99.90;;;;;;5093784;28;20041;-80
2023/01/19 03:48:36;;;;;;;54.60;19.63;;;1.90;99.90;;;;;;5056896;28;19964;-82
2023/01/19 03:51:07;;;;;;;48.17;16.80;;;1.80;99.90;;;;;;5040398;28;20111;-78
2023/01/19 03:53:33;;;;;;;51.40;15.80;;;1.80;99.90;;;;;;5057509;28;20084;-80
2023/01/19 03:55:59;;;;;;;41.80;13.88;;;1.80;99.90;;;;;;5056564;28;20053;-81
2023/01/19 03:58:25;;;;;;;41.65;14.20;;;1.80;99.90;;;;;;5074611;28;20151;-83
2023/01/19 04:00:51;;;;;;;42.60;13.50;;;1.90;99.90;;;;;;5058478;28;20127;-82
2023/01/19 04:03:17;;;;;;;43.47;15.10;;;1.80;99.90;;;;;;5040144;28;20053;-81
2023/01/19 04:05:44;;;;;;;36.65;11.50;;;1.80;99.90;;;;;;5057613;28;20044;-81
2023/01/19 04:08:10;;;;;;;31.08;9.88;;;1.80;99.90;;;;;;5093666;28;20370;-81
2023/01/19 04:10:36;;;;;;;27.17;9.88;;;1.70;99.90;;;;;;5061118;28;20116;-82
2023/01/19 04:13:03;;;;;;;31.42;10.70;;;1.70;99.90;;;;;;5058075;28;20128;-81
2023/01/19 04:15:29;;;;;;;32.40;11.38;;;1.70;99.90;;;;;;5058990;28;20041;-81
2023/01/19 04:17:59;;;;;;;40.78;12.40;;;1.70;99.90;;;;;;5060858;28;20053;-81
2023/01/19 04:20:27;;;;;;;33.03;10.20;;;1.70;99.90;;;;;;5059102;28;20135;-81
2023/01/19 04:22:53;;;;;;;;;;;1.70;99.90;;;;;;5059308;28;20057;-80
2023/01/19 04:25:19;;;;;;;31.55;9.57;;;1.70;99.90;;;;;;5057455;28;19921;-81
2023/01/19 04:27:44;;;;;;;33.40;10.18;;;1.70;99.90;;;;;;5057653;28;20057;-80
2023/01/19 04:30:11;;;;;;;29.70;10.73;;;1.70;99.90;;;;;;5056356;28;20041;-82
2023/01/19 04:32:36;;;;;;;35.75;11.63;;;1.80;99.90;;;;;;5058019;28;20053;-81
2023/01/19 04:35:03;;;;;;;39.00;11.57;;;1.80;99.90;;;;;;5055204;28;20103;-80
2023/01/19 04:37:29;;;;;;;41.13;12.43;;;1.80;99.90;;;;;;5056872;28;20124;-82
2023/01/19 04:39:54;;;;;;;44.50;13.68;;;1.80;99.90;;;;;;5073891;28;20088;-83
2023/01/19 04:42:21;;;;;;;50.47;16.58;;;1.80;99.90;;;;;;5056152;28;20037;-80
2023/01/19 04:44:46;;;;;;;53.25;15.68;;;1.90;99.90;;;;;;5057850;28;20045;-81
2023/01/19 04:47:12;;;;;;;54.83;16.45;;;1.90;99.90;;;;;;5040350;28;20049;-81
2023/01/19 04:49:38;;;;;;;67.50;17.85;;;1.90;99.90;;;;;;5039837;28;20254;-80
2023/01/19 04:52:05;;;;;;;62.28;18.33;;;1.90;99.90;;;;;;5040826;28;20084;-78
2023/01/19 04:54:30;;;;;;;51.05;15.15;;;1.90;99.90;;;;;;5039260;28;20111;-80
2023/01/19 04:56:56;;;;;;;51.40;14.02;;;2.00;99.90;;;;;;5055678;28;20053;-82
2023/01/19 04:59:22;;;;;;;43.00;11.93;;;2.10;99.90;;;;;;5022704;28;20041;-81
2023/01/19 05:01:48;;;;;;;44.65;11.65;;;2.10;99.90;;;;;;5057380;28;20041;-80
2023/01/19 05:04:14;;;;;;;35.78;8.38;;;2.20;99.90;;;;;;5056395;28;20044;-80
2023/01/19 05:06:39;;;;;;;27.80;7.43;;;2.30;99.90;;;;;;5056982;28;20204;-80
2023/01/19 05:09:07;;;;;;;24.63;6.18;;;2.30;99.90;;;;;;5056243;28;20044;-79
2023/01/19 05:11:34;;;;;;;24.35;5.35;;;2.40;99.90;;;;;;5056186;28;20473;-79
2023/01/19 05:14:00;;;;;;;28.05;5.43;;;2.50;99.90;;;;;;5058262;28;20106;-80
2023/01/19 05:16:25;;;;;;;22.20;5.40;;;2.60;99.90;;;;;;5064285;28;20477;-80
2023/01/19 05:18:51;;;;;;;20.92;4.80;;;2.60;99.90;;;;;;5064268;28;20128;-80
2023/01/19 05:21:17;;;;;;;27.60;4.32;;;2.70;99.90;;;;;;5066613;28;20053;-79
2023/01/19 05:23:43;;;;;;;24.42;4.25;;;2.80;99.90;;;;;;5065211;28;20057;-80
2023/01/19 05:26:09;;;;;;;26.27;4.00;;;2.70;99.90;;;;;;5061346;28;20049;-82
2023/01/19 05:28:36;;;;;;;19.20;2.95;;;2.70;99.90;;;;;;5060402;28;20369;-81
2023/01/19 05:31:01;;;;;;;28.85;2.72;;;2.80;99.90;;;;;;5056376;28;20076;-83
2023/01/19 05:33:27;;;;;;;20.10;1.75;;;2.90;99.90;;;;;;5053828;28;20476;-82
2023/01/19 05:35:54;;;;;;;23.30;1.50;;;3.10;99.90;;;;;;5055529;28;20083;-81
2023/01/19 05:38:20;;;;;;;25.05;1.58;;;3.20;99.90;;;;;;5054640;28;20099;-82
2023/01/19 05:40:46;;;;;;;12.73;0.80;;;3.40;99.90;;;;;;5044822;28;20456;-81
2023/01/19 05:43:13;;;;;;;14.50;1.23;;;3.50;99.90;;;;;;5046617;28;20049;-80
2023/01/19 05:45:40;;;;;;;14.27;0.85;;;3.60;99.90;;;;;;5059570;28;20045;-82
2023/01/19 05:48:06;;;;;;;18.20;1.13;;;3.60;99.90;;;;;;5088798;28;20061;-82
2023/01/19 05:50:33;;;;;;;14.27;1.13;;;3.50;99.90;;;;;;5055318;28;20092;-80
2023/01/19 05:52:59;;;;;;;12.07;1.00;;;3.50;99.90;;;;;;5038309;28;20056;-80
2023/01/19 05:55:25;;;;;;;15.27;1.17;;;3.50;99.90;;;;;;5053922;28;20053;-82
2023/01/19 05:57:54;;;;;;;16.30;0.90;;;3.50;99.90;;;;;;5055270;28;20044;-82
2023/01/19 06:00:20;;;;;;;13.07;0.40;;;3.40;99.90;;;;;;5055657;28;20501;-80
2023/01/19 06:02:48;;;;;;;12.85;1.00;;;3.50;99.90;;;;;;5054022;28;20045;-79
2023/01/19 06:05:14;;;;;;;;;;;3.40;99.90;;;;;;5053851;28;20072;-80
2023/01/19 06:07:40;;;;;;;13.32;0.35;;;3.30;99.90;;;;;;5055852;28;20326;-82
2023/01/19 06:10:06;;;;;;;13.02;0.55;;;3.30;99.90;;;;;;5054624;28;20140;-81
2023/01/19 06:12:32;;;;;;;11.23;0.55;;;3.30;99.90;;;;;;5053769;28;20516;-79
2023/01/19 06:14:58;;;;;;;11.15;0.60;;;3.20;99.90;;;;;;5036177;28;20056;-80
2023/01/19 06:17:24;;;;;;;12.00;0.65;;;3.10;99.90;;;;;;5054297;28;20053;-80
2023/01/19 06:19:49;;;;;;;4.35;0.50;;;3.10;99.90;;;;;;5069706;28;20056;-79
2023/01/19 06:22:15;;;;;;;7.18;0.38;;;3.00;99.90;;;;;;5053561;28;20511;-79
2023/01/19 06:24:41;;;;;;;7.65;0.77;;;2.90;99.90;;;;;;5054253;28;20056;-80
2023/01/19 06:27:07;;;;;;;9.57;0.75;;;2.90;99.90;;;;;;5053445;28;20056;-79
2023/01/19 06:29:33;;;;;;;7.65;0.50;;;2.80;99.90;;;;;;5052426;28;20132;-80
2023/01/19 06:31:59;;;;;;;12.57;0.65;;;2.70;99.90;;;;;;5054211;28;20468;-81
2023/01/19 06:34:27;;;;;;;12.38;0.88;;;2.60;99.90;;;;;;5035859;28;20041;-80
2023/01/19 06:36:56;;;;;;;12.85;0.60;;;2.60;99.90;;;;;;5053190;28;20128;-81
2023/01/19 06:39:22;;;;;;;10.98;0.60;;;2.50;99.90;;;;;;5055041;28;20053;-81
2023/01/19 06:41:48;;;;;;;8.48;0.30;;;2.40;99.90;;;;;;5056578;28;20045;-80
2023/01/19 06:44:14;;;;;;;9.38;0.98;;;2.40;99.90;;;;;;5053513;28;20049;-82
2023/01/19 06:46:39;;;;;;;13.88;0.60;;;2.30;99.90;;;;;;5053898;28;20053;-82
2023/01/19 06:49:05;;;;;;;11.35;0.60;;;2.30;99.90;;;;;;5052924;28;20074;-81
2023/01/19 06:51:31;;;;;;;13.77;0.80;;;2.30;99.90;;;;;;5053708;28;20041;-82
2023/01/19 06:53:57;;;;;;;8.45;0.65;;;2.30;99.90;;;;;;5052824;28;20103;-82
2023/01/19 06:56:23;;;;;;;18.40;0.90;;;2.30;99.90;;;;;;5086602;28;20127;-80
2023/01/19 06:58:49;;;;;;;24.92;1.48;;;2.30;99.90;;;;;;5053460;28;20135;-82
2023/01/19 07:01:15;;;;;;;43.10;3.10;;;2.40;99.90;;;;;;5037279;28;20044;-81
2023/01/19 07:03:41;;;;;;;18.38;1.40;;;2.50;99.90;;;;;;5054007;28;20037;-82
2023/01/19 07:06:07;;;;;;;17.02;0.90;;;2.60;99.90;;;;;;5053883;28;20041;-82
2023/01/19 07:08:34;;;;;;;20.87;1.43;;;2.70;99.90;;;;;;5052951;28;20088;-80
2023/01/19 07:11:06;;;;;;;19.65;1.13;;;2.80;99.90;;;;;;5036909;28;20041;-80
2023/01/19 07:13:35;;;;;;;25.58;1.25;;;2.80;99.90;;;;;;5055707;28;20092;-81
2023/01/19 07:16:06;;;;;;;24.88;1.73;;;2.80;99.90;;;;;;5054202;28;20051;-81
2023/01/19 07:18:31;;;;;;;20.42;1.70;;;2.70;99.90;;;;;;5053139;28;20509;-82
2023/01/19 07:20:57;;;;;;;19.48;0.98;;;2.70;99.90;;;;;;5035481;28;20045;-81
2023/01/19 07:23:23;;;;;;;24.50;1.30;;;2.70;99.90;;;;;;5053341;28;20052;-81
2023/01/19 07:25:49;;;;;;;21.58;1.70;;;2.70;99.90;;;;;;5053264;28;20088;-81
2023/01/19 07:28:15;;;;;;;24.67;1.23;;;2.60;99.90;;;;;;5053477;28;20499;-82
2023/01/19 07:30:45;;;;;;;31.73;1.95;;;2.60;99.90;;;;;;5053354;28;20374;-81
2023/01/19 07:33:11;;;;;;;19.77;0.90;;;2.60;99.90;;;;;;5054239;28;20072;-81
2023/01/19 07:35:37;;;;;;;25.55;1.73;;;2.50;99.90;;;;;;5055312;28;20113;-81
2023/01/19 07:38:03;;;;;;;22.17;1.52;;;2.60;99.90;;;;;;5052814;28;20128;-82
2023/01/19 07:40:28;;;;;;;22.40;1.15;;;2.60;99.90;;;;;;5054468;28;20045;-81
2023/01/19 07:42:54;;;;;;;23.13;1.55;;;2.70;99.90;;;;;;5057664;28;20503;-82
2023/01/19 07:45:20;;;;;;;24.30;1.67;;;2.70;99.90;;;;;;5056570;28;20045;-81
2023/01/19 07:47:50;;;;;;;26.90;1.10;;;2.70;99.90;;;;;;5056988;28;20385;-81
2023/01/19 07:50:20;;;;;;;28.95;1.25;;;2.70;99.90;;;;;;5062436;28;20052;-82
2023/01/19 07:52:46;;;;;;;22.10;1.02;;;2.70;99.90;;;;;;5055587;28;20497;-80
2023/01/19 07:55:11;;;;;;;27.40;2.85;;;2.70;99.90;;;;;;5057013;28;20504;-81
2023/01/19 07:57:37;;;;;;;23.15;1.30;;;2.70;99.90;;;;;;5055305;28;20049;-82
2023/01/19 08:00:04;;;;;;;31.25;1.65;;;2.70;99.90;;;;;;5055092;28;20102;-79
2023/01/19 08:02:32;;;;;;;17.45;0.90;;;2.80;99.90;;;;;;5056067;28;20064;-82
2023/01/19 08:04:58;;;;;;;20.10;1.38;;;2.70;99.90;;;;;;5039671;28;20080;-81
2023/01/19 08:07:24;;;;;;;35.97;1.10;;;2.70;99.90;;;;;;5056794;28;20049;-82
2023/01/19 08:09:50;;;;;;;19.15;0.85;;;2.70;99.90;;;;;;5055301;28;20045;-82
2023/01/19 08:12:16;;;;;;;19.50;1.27;;;2.60;99.90;;;;;;5056784;28;20045;-84
2023/01/19 08:14:41;;;;;;;17.60;1.00;;;2.70;99.90;;;;;;5056064;28;20075;-84
2023/01/19 08:17:11;;;;;;;27.23;1.73;;;2.60;99.90;;;;;;5056401;28;20104;-84
2023/01/19 08:19:37;;;;;;;32.22;2.60;;;2.60;99.90;;;;;;5056338;28;20041;-82
2023/01/19 08:22:04;;;;;;;19.67;1.40;;;2.70;99.90;;;;;;5057416;28;20053;-84
2023/01/19 08:24:31;;;;;;;21.10;2.45;;;2.70;99.90;;;;;;5057748;28;20334;-83
2023/01/19 08:27:02;;;;;;;30.67;1.02;;;2.80;99.90;;;;;;5056010;28;20052;-80
2023/01/19 08:29:30;;;;;;;32.67;2.17;;;2.90;99.90;;;;;;5054971;28;20385;-83
2023/01/19 08:31:58;;;;;;;21.10;1.52;;;2.90;99.90;;;;;;5056986;28;20126;-85
2023/01/19 08:34:25;;;;;;;25.63;1.90;;;3.00;99.90;;;;;;5058673;28;20138;-84
2023/01/19 08:36:50;;;;;;;20.92;1.30;;;3.10;99.90;;;;;;5062469;28;20102;-80
2023/01/19 08:39:17;;;;;;;18.15;1.50;;;3.10;99.90;;;;;;5055167;28;20416;-82
2023/01/19 08:41:43;;;;;;;22.05;1.60;;;3.10;99.90;;;;;;5090440;28;20052;-84
2023/01/19 08:44:09;;;;;;;18.70;1.60;;;3.10;99.90;;;;;;5058234;28;20520;-82
2023/01/19 08:46:35;;;;;;;18.27;1.92;;;3.10;99.90;;;;;;5062800;28;20049;-82
2023/01/19 08:49:00;;;;;;;21.30;1.10;;;3.10;99.90;;;;;;5024574;28;20346;-83
2023/01/19 08:51:26;;;;;;;26.73;1.60;;;3.00;99.90;;;;;;5057150;28;20444;-82
2023/01/19 08:53:52;;;;;;;23.55;1.63;;;3.00;99.90;;;;;;5055209;28;20088;-82
2023/01/19 08:56:18;;;;;;;14.18;1.38;;;2.90;99.90;;;;;;5056103;28;20365;-79
2023/01/19 08:58:44;;;;;;;31.65;1.38;;;3.00;99.90;;;;;;5056185;28;20485;-83
2023/01/19 09:01:13;;;;;;;39.78;2.13;;;2.90;99.90;;;;;;5038662;28;20052;-83
2023/01/19 09:03:39;;;;;;;19.90;1.13;;;2.80;99.90;;;;;;5056144;28;20037;-82
2023/01/19 09:06:06;;;;;;;19.02;0.90;;;2.80;99.90;;;;;;5054075;28;20076;-81
2023/01/19 09:08:32;;;;;;;27.90;1.58;;;2.70;99.90;;;;;;5054863;28;20052;-82
2023/01/19 09:10:58;;;;;;;20.77;1.65;;;2.70;99.90;;;;;;5053824;28;20136;-82
2023/01/19 09:13:24;;;;;;;27.23;2.03;;;2.60;99.90;;;;;;5054454;28;20099;-83
2023/01/19 09:15:50;;;;;;;20.45;1.65;;;2.60;99.90;;;;;;5054842;28;20056;-80
2023/01/19 09:18:20;;;;;;;25.80;2.67;;;2.50;99.90;;;;;;5053723;28;20060;-82
2023/01/19 09:20:48;;;;;;;35.45;2.08;;;2.60;99.90;;;;;;5054348;28;20570;-81
2023/01/19 09:23:17;;;;;;;34.75;1.70;;;2.60;99.90;;;;;;5055718;28;20065;-82
2023/01/19 09:25:44;;;;;;;29.25;1.25;;;2.60;99.90;;;;;;5053675;28;20109;-81
2023/01/19 09:28:11;;;;;;;;;;;2.60;99.90;;;;;;5054447;28;20052;-81
2023/01/19 09:30:38;;;;;;;25.40;1.58;;;2.70;99.90;;;;;;5053466;28;19968;-81
2023/01/19 09:33:06;;;;;;;39.28;2.63;;;2.60;99.90;;;;;;5053358;28;20179;-82
2023/01/19 09:35:33;;;;;;;38.38;2.53;;;2.60;99.90;;;;;;5053212;28;20053;-80
2023/01/19 09:37:59;;;;;;;43.53;2.25;;;2.70;99.90;;;;;;5053516;28;20481;-81
2023/01/19 09:40:26;;;;;;;34.53;2.55;;;2.70;99.90;;;;;;5053931;28;20060;-82
2023/01/19 09:43:17;;;;;;;28.17;1.65;;;2.80;99.90;;;;;;5053794;28;20087;-82
2023/01/19 09:45:50;;;;;;;25.33;1.88;;;2.90;99.90;;;;;;5054913;28;20390;-80
2023/01/19 09:48:36;;;;;;;24.27;2.08;;;3.00;99.90;;;;;;5056241;28;20494;-80
2023/01/19 09:51:04;;;;;;;23.08;1.38;;;3.10;99.90;;;;;;5068814;28;20053;-83
2023/01/19 09:53:49;;;;;;;27.67;1.88;;;3.20;99.90;;;;;;5055013;28;20041;-80
2023/01/19 09:56:18;;;;;;;35.78;1.63;;;3.30;99.90;;;;;;5057318;28;20148;-83
2023/01/19 09:58:49;;;;;;;21.88;1.80;;;3.30;99.90;;;;;;5057123;28;20142;-82
2023/01/19 10:01:57;;;;;;;17.98;1.25;;;3.30;99.90;;;;;;5058676;28;20499;-80
2023/01/19 10:04:41;;;;;;;25.50;2.03;;;3.40;99.90;;;;;;4944151;29;20047;-83
2023/01/19 10:07:13;;;;;;;24.73;1.90;;;3.50;99.90;;;;;;5049676;28;20100;-84
2023/01/19 10:10:11;;;;;;;22.15;1.77;;;3.60;99.90;;;;;;5059406;28;20041;-82
2023/01/19 10:12:50;;;;;;;27.63;1.83;;;3.70;99.90;;;;;;5057737;28;20041;-82
2023/01/19 10:15:16;;;;;;;22.00;1.00;;;3.80;99.90;;;;;;5054801;28;20045;-82
2023/01/19 10:17:41;;;;;;;22.45;1.98;;;3.80;99.90;;;;;;5055333;28;20403;-81
2023/01/19 10:20:21;;;;;;;24.40;1.65;;;3.90;99.90;;;;;;5059416;28;20045;-80
2023/01/19 10:22:49;;;;;;;30.90;1.30;;;3.90;99.90;;;;;;5060798;28;20049;-80
2023/01/19 10:25:19;;;;;;;31.08;3.10;;;3.90;99.90;;;;;;5040256;28;20115;-85
2023/01/19 10:27:46;;;;;;;34.55;1.88;;;4.00;99.90;;;;;;5058619;28;20053;-79
2023/01/19 10:30:22;;;;;;;21.88;1.52;;;4.00;99.90;;;;;;5054606;28;20056;-82
2023/01/19 10:32:49;;;;;;;21.52;1.20;;;4.10;99.90;;;;;;5054982;28;20076;-83
2023/01/19 10:35:23;;;;;;;22.55;1.48;;;4.20;99.90;;;;;;5038270;28;20465;-84
2023/01/19 10:37:50;;;;;;;31.60;1.92;;;4.20;99.90;;;;;;5053498;28;20377;-84
2023/01/19 10:41:02;;;;;;;15.75;2.45;;;4.20;99.90;;;;;;5069804;28;20163;-83
2023/01/19 10:43:39;;;;;;;20.60;1.35;;;4.20;99.90;;;;;;4970072;28;20043;-82
2023/01/19 10:46:07;;;;;;;15.60;1.83;;;4.20;99.90;;;;;;4938008;29;20597;-82
2023/01/19 10:48:40;;;;;;;19.67;1.13;;;4.20;99.90;;;;;;5006557;28;20088;-84
2023/01/19 10:51:08;;;;;;;19.55;1.67;;;4.30;99.90;;;;;;5053481;28;20102;-81
2023/01/19 10:53:34;;;;;;;13.55;1.00;;;4.50;99.90;;;;;;5054175;28;20052;-82
2023/01/19 10:56:23;;;;;;;19.85;0.80;;;4.50;99.90;;;;;;5053543;28;20053;-84
2023/01/19 10:58:49;;;;;;;19.90;1.17;;;4.50;99.90;;;;;;5052895;28;20139;-81
2023/01/19 11:01:26;;;;;;;24.88;0.98;;;4.50;99.90;;;;;;5035780;28;20545;-82
2023/01/19 11:03:53;;;;;;;;;;;4.70;99.90;;;;;;5054060;28;20469;-80
2023/01/19 11:06:20;;;;;;;19.88;1.25;;;4.70;99.90;;;;;;5053489;28;19920;-82
2023/01/19 11:08:47;;;;;;;;;;;4.60;99.90;;;;;;5052568;28;20045;-81
2023/01/19 11:11:13;;;;;;;11.23;1.13;;;4.80;99.90;;;;;;5085639;28;19943;-82
2023/01/19 11:13:41;;;;;;;10.57;0.68;;;4.80;99.90;;;;;;5069370;28;20057;-81
2023/01/19 11:16:19;;;;;;;18.00;1.30;;;4.80;99.90;;;;;;5055971;28;20092;-82
2023/01/19 11:18:50;;;;;;;22.73;2.42;;;4.80;99.90;;;;;;5057525;28;20489;-83
2023/01/19 11:21:16;;;;;;;16.98;0.95;;;4.90;99.90;;;;;;5057189;28;20041;-82
2023/01/19 11:23:50;;;;;;;12.48;1.02;;;4.90;99.90;;;;;;5057523;28;20498;-83
2023/01/19 11:26:27;;;;;;;13.35;1.00;;;4.90;99.90;;;;;;5057148;28;20065;-82
2023/01/19 11:28:56;;;;;;;12.23;0.75;;;4.90;99.90;;;;;;5057743;28;20388;-83
2023/01/19 11:31:39;;;;;;;12.70;0.55;;;4.90;99.90;;;;;;5089606;28;20053;-81
2023/01/19 11:34:22;;;;;;;14.55;1.20;;;5.00;99.90;;;;;;5057189;28;20489;-82
2023/01/19 11:36:58;;;;;;;17.85;1.50;;;5.00;99.90;;;;;;5055991;28;20056;-81
2023/01/19 11:39:27;;;;;;;15.70;1.58;;;5.00;99.90;;;;;;5057238;28;20060;-81
2023/01/19 11:41:56;;;;;;;12.45;0.60;;;5.10;99.90;;;;;;5056538;28;20495;-77
2023/01/19 11:44:28;;;;;;;20.15;0.77;;;5.10;99.90;;;;;;5056834;28;20049;-81
2023/01/19 11:47:16;;;;;;;14.88;0.73;;;5.10;99.90;;;;;;5056656;28;20045;-79
2023/01/19 11:49:49;;;;;;;18.25;0.70;;;5.20;99.90;;;;;;5089473;28;20061;-81
2023/01/19 11:52:20;;;;;;;15.30;0.70;;;5.20;99.90;;;;;;5089739;28;20129;-80
2023/01/19 11:54:56;;;;;;;17.15;0.70;;;5.30;99.90;;;;;;5056402;28;20481;-80
2023/01/19 11:57:22;;;;;;;20.33;1.73;;;5.20;99.90;;;;;;5057974;28;20044;-79
2023/01/19 11:59:48;;;;;;;18.65;0.95;;;5.20;99.90;;;;;;5056481;28;20374;-79
2023/01/19 12:02:28;;;;;;;16.00;0.60;;;5.30;99.90;;;;;;5039081;28;20055;-80
2023/01/19 12:04:59;;;;;;;21.02;0.90;;;5.30;99.90;;;;;;5057551;28;20097;-80
2023/01/19 12:07:29;;;;;;;22.80;0.88;;;5.30;99.90;;;;;;5091682;28;20496;-80
2023/01/19 12:10:11;;;;;;;13.52;0.60;;;5.40;99.90;;;;;;5055951;28;20424;-81
2023/01/19 12:12:39;;;;;;;15.43;0.73;;;5.40;99.90;;;;;;5056226;28;20048;-81
2023/01/19 12:15:17;;;;;;;17.17;2.15;;;5.50;99.90;;;;;;5038615;28;20128;-79
2023/01/19 12:17:48;;;;;;;15.43;1.05;;;5.60;99.90;;;;;;5022631;28;20056;-80
2023/01/19 12:20:32;;;;;;;17.05;1.17;;;5.70;99.90;;;;;;5055795;28;20051;-80
2023/01/19 12:23:10;;;;;;;19.00;0.70;;;5.80;99.90;;;;;;5054358;28;20096;-75
2023/01/19 12:25:54;;;;;;;16.20;1.05;;;5.90;99.90;;;;;;5055249;28;20448;-79
2023/01/19 12:28:28;;;;;;;17.80;0.55;;;6.00;99.90;;;;;;5056377;28;20048;-80
2023/01/19 12:30:55;;;;;;;16.85;0.60;;;5.90;99.90;;;;;;5054623;28;20136;-77
2023/01/19 12:33:27;;;;;;;11.73;1.70;;;5.90;99.90;;;;;;5056386;28;20052;-80
2023/01/19 12:36:02;;;;;;;11.88;0.70;;;6.00;99.90;;;;;;5054352;28;20057;-79
2023/01/19 12:38:51;;;;;;;22.40;1.13;;;5.90;99.90;;;;;;5054234;28;20068;-77
2023/01/19 12:41:23;;;;;;;13.35;1.25;;;6.00;99.90;;;;;;5055717;28;20401;-79
2023/01/19 12:44:18;;;;;;;16.38;0.93;;;6.00;99.90;;;;;;5054094;28;20094;-80
2023/01/19 12:46:53;;;;;;;14.30;0.95;;;6.00;99.90;;;;;;5044017;28;20053;-81
2023/01/19 12:49:25;;;;;;;14.80;1.27;;;6.00;99.90;;;;;;5054861;28;20060;-80
2023/01/19 12:51:54;;;;;;;14.23;0.65;;;6.10;99.90;;;;;;5054964;28;20441;-79
2023/01/19 12:54:29;;;;;;;17.20;0.98;;;6.10;99.90;;;;;;5053816;28;20052;-80
2023/01/19 12:57:07;;;;;;;13.77;0.98;;;6.10;99.90;;;;;;5055242;28;20083;-79
2023/01/19 12:59:35;;;;;;;8.20;0.43;;;6.00;99.90;;;;;;5055116;28;20103;-80
2023/01/19 13:02:39;;;;;;;9.57;0.47;;;6.00;99.90;;;;;;5088426;28;20044;-80
2023/01/19 13:05:17;;;;;;;8.80;0.40;;;5.80;99.90;;;;;;5055104;28;20493;-79
2023/01/19 13:08:01;;;;;;;14.23;0.55;;;5.70;99.90;;;;;;5054716;28;20513;-81
2023/01/19 13:10:55;;;;;;;21.63;1.48;;;5.60;99.90;;;;;;5054225;28;20045;-80